createdAt,value
2022-08-28T00:00:25.485Z,18.80
2022-08-28T00:01:25.472Z,18.81
2022-08-28T00:02:25.508Z,18.76
2022-08-28T00:03:25.489Z,18.75
2022-08-28T00:04:25.497Z,18.82
2022-08-28T00:05:25.464Z,18.78
2022-08-28T00:06:25.419Z,18.72
2022-08-28T00:07:25.405Z,18.80
2022-08-28T00:08:25.407Z,18.81
2022-08-28T00:09:25.413Z,18.81
2022-08-28T00:10:25.452Z,18.91
2022-08-28T00:11:25.361Z,18.82
2022-08-28T00:12:25.351Z,18.90
2022-08-28T00:13:25.339Z,18.78
2022-08-28T00:14:25.330Z,18.82
2022-08-28T00:15:25.331Z,18.88
2022-08-28T00:16:25.440Z,18.85
2022-08-28T00:17:25.296Z,18.88
2022-08-28T00:18:25.286Z,18.90
2022-08-28T00:19:25.274Z,18.85
2022-08-28T00:20:25.269Z,18.80
2022-08-28T00:21:25.304Z,18.82
2022-08-28T00:22:25.268Z,18.80
2022-08-28T00:23:25.227Z,18.80
2022-08-28T00:24:25.218Z,18.80
2022-08-28T00:25:25.237Z,18.88
2022-08-28T00:26:25.210Z,18.82
2022-08-28T00:27:25.209Z,18.90
2022-08-28T00:28:25.259Z,18.87
2022-08-28T00:29:25.201Z,18.80
2022-08-28T00:30:25.151Z,18.92
2022-08-28T00:31:25.232Z,18.82
2022-08-28T00:32:25.150Z,18.87
2022-08-28T00:33:25.151Z,18.76
2022-08-28T00:34:25.469Z,18.81
2022-08-28T00:35:26.104Z,18.84
2022-08-28T00:36:25.102Z,18.80
2022-08-28T00:37:25.076Z,18.84
2022-08-28T00:38:25.683Z,18.85
2022-08-28T00:39:25.077Z,18.85
2022-08-28T00:40:30.686Z,18.76
2022-08-28T00:41:27.539Z,18.80
2022-08-28T00:42:25.055Z,18.72
2022-08-28T00:43:25.025Z,18.66
2022-08-28T00:44:25.028Z,18.70
2022-08-28T00:45:24.988Z,18.62
2022-08-28T00:46:25.083Z,18.66
2022-08-28T00:47:24.996Z,18.66
2022-08-28T00:48:24.962Z,18.65
2022-08-28T00:49:24.958Z,18.70
2022-08-28T00:50:24.966Z,18.75
2022-08-28T00:51:24.967Z,18.66
2022-08-28T00:52:24.908Z,18.67
2022-08-28T00:53:27.129Z,18.70
2022-08-28T00:54:25.908Z,18.70
2022-08-28T00:55:24.923Z,18.72
2022-08-28T00:56:24.908Z,18.60
2022-08-28T00:57:27.116Z,18.66
2022-08-28T00:58:24.840Z,18.54
2022-08-28T00:59:24.834Z,18.58
2022-08-28T01:00:25.786Z,18.62
2022-08-28T01:01:24.869Z,18.54
2022-08-28T01:02:24.873Z,18.55
2022-08-28T01:03:25.147Z,18.52
2022-08-28T01:04:24.775Z,18.51
2022-08-28T01:05:24.767Z,18.52
2022-08-28T01:06:24.790Z,18.52
2022-08-28T01:07:24.757Z,18.51
2022-08-28T01:08:24.730Z,18.48
2022-08-28T01:09:25.719Z,18.54
2022-08-28T01:10:24.715Z,18.45
2022-08-28T01:11:24.707Z,18.48
2022-08-28T01:12:24.733Z,18.50
2022-08-28T01:13:24.706Z,18.55
2022-08-28T01:14:24.664Z,18.54
2022-08-28T01:15:24.651Z,18.47
2022-08-28T01:16:30.812Z,18.47
2022-08-28T01:17:25.677Z,18.48
2022-08-28T01:18:24.649Z,18.44
2022-08-28T01:19:24.607Z,18.44
2022-08-28T01:20:24.597Z,18.48
2022-08-28T01:21:24.585Z,18.41
2022-08-28T01:22:24.584Z,18.42
2022-08-28T01:23:24.834Z,18.41
2022-08-28T01:24:24.559Z,18.47
2022-08-28T01:25:24.539Z,18.47
2022-08-28T01:26:24.555Z,18.44
2022-08-28T01:27:25.121Z,18.39
2022-08-28T01:28:24.530Z,18.44
2022-08-28T01:29:24.522Z,18.47
2022-08-28T01:30:24.507Z,18.52
2022-08-28T01:31:24.532Z,18.48
2022-08-28T01:32:24.487Z,18.44
2022-08-28T01:33:27.950Z,18.51
2022-08-28T01:34:24.450Z,18.52
2022-08-28T01:35:24.463Z,18.48
2022-08-28T01:36:24.463Z,18.52
2022-08-28T01:37:24.407Z,18.52
2022-08-28T01:38:26.717Z,18.51
2022-08-28T01:39:24.413Z,18.45
2022-08-28T01:40:24.447Z,18.44
2022-08-28T01:41:24.389Z,18.52
2022-08-28T01:42:24.404Z,18.44
2022-08-28T01:43:24.406Z,18.54
2022-08-28T01:44:24.365Z,18.44
2022-08-28T01:45:24.333Z,18.50
2022-08-28T01:46:24.385Z,18.48
2022-08-28T01:47:24.303Z,18.50
2022-08-28T01:48:24.287Z,18.48
2022-08-28T01:49:24.302Z,18.52
2022-08-28T01:50:24.266Z,18.52
2022-08-28T01:51:24.806Z,18.48
2022-08-28T01:52:26.310Z,18.52
2022-08-28T01:53:25.000Z,18.50
2022-08-28T01:54:24.220Z,18.47
2022-08-28T01:55:24.233Z,18.57
2022-08-28T01:56:24.214Z,18.52
2022-08-28T01:57:24.197Z,18.51
2022-08-28T01:58:24.202Z,18.48
2022-08-28T01:59:24.164Z,18.54
2022-08-28T02:00:24.176Z,18.48
2022-08-28T02:01:24.226Z,18.51
2022-08-28T02:02:24.158Z,18.54
2022-08-28T02:03:24.130Z,18.48
2022-08-28T02:04:29.604Z,18.52
2022-08-28T02:05:25.095Z,18.54
2022-08-28T02:06:24.087Z,18.50
2022-08-28T02:07:24.074Z,18.52
2022-08-28T02:08:24.075Z,18.51
2022-08-28T02:09:24.367Z,18.47
2022-08-28T02:10:24.043Z,18.45
2022-08-28T02:11:24.029Z,18.51
2022-08-28T02:12:24.019Z,18.48
2022-08-28T02:13:25.706Z,18.51
2022-08-28T02:14:24.006Z,18.55
2022-08-28T02:15:24.016Z,18.47
2022-08-28T02:16:23.974Z,18.52
2022-08-28T02:17:23.964Z,18.54
2022-08-28T02:18:23.953Z,18.48
2022-08-28T02:19:23.979Z,18.50
2022-08-28T02:20:23.954Z,18.48
2022-08-28T02:21:23.958Z,18.44
2022-08-28T02:22:23.912Z,18.48
2022-08-28T02:23:23.895Z,18.52
2022-08-28T02:24:23.891Z,18.45
2022-08-28T02:25:23.914Z,18.48
2022-08-28T02:26:23.903Z,18.42
2022-08-28T02:27:23.898Z,18.48
2022-08-28T02:28:23.846Z,18.51
2022-08-28T02:29:23.829Z,18.48
2022-08-28T02:30:23.864Z,18.48
2022-08-28T02:31:23.938Z,18.48
2022-08-28T02:32:23.811Z,18.44
2022-08-28T02:33:23.786Z,18.47
2022-08-28T02:34:23.779Z,18.51
2022-08-28T02:35:23.762Z,18.51
2022-08-28T02:36:23.761Z,18.45
2022-08-28T02:37:23.774Z,18.50
2022-08-28T02:38:23.762Z,18.36
2022-08-28T02:39:23.718Z,18.36
2022-08-28T02:40:23.925Z,18.39
2022-08-28T02:41:23.702Z,18.33
2022-08-28T02:42:23.693Z,18.26
2022-08-28T02:43:23.696Z,18.32
2022-08-28T02:44:23.665Z,18.36
2022-08-28T02:45:23.688Z,18.29
2022-08-28T02:46:23.735Z,18.23
2022-08-28T02:47:23.651Z,18.33
2022-08-28T02:48:23.636Z,18.27
2022-08-28T02:49:23.629Z,18.32
2022-08-28T02:50:23.643Z,18.29
2022-08-28T02:51:23.586Z,18.35
2022-08-28T02:52:23.613Z,18.33
2022-08-28T02:53:23.576Z,18.26
2022-08-28T02:54:23.575Z,18.26
2022-08-28T02:55:23.572Z,18.25
2022-08-28T02:56:23.533Z,18.37
2022-08-28T02:57:23.521Z,18.36
2022-08-28T02:58:23.521Z,18.35
2022-08-28T02:59:23.503Z,18.37
2022-08-28T03:00:23.515Z,18.36
2022-08-28T03:01:23.558Z,18.30
2022-08-28T03:02:23.486Z,18.39
2022-08-28T03:03:23.453Z,18.36
2022-08-28T03:04:23.468Z,18.35
2022-08-28T03:05:23.450Z,18.44
2022-08-28T03:06:23.453Z,18.35
2022-08-28T03:07:23.408Z,18.29
2022-08-28T03:08:23.398Z,18.36
2022-08-28T03:09:23.385Z,18.32
2022-08-28T03:10:23.382Z,18.42
2022-08-28T03:11:23.390Z,18.39
2022-08-28T03:12:23.395Z,18.39
2022-08-28T03:13:27.085Z,18.36
2022-08-28T03:14:23.355Z,18.37
2022-08-28T03:15:23.320Z,18.37
2022-08-28T03:16:23.343Z,18.26
2022-08-28T03:17:23.333Z,18.32
2022-08-28T03:18:23.288Z,18.36
2022-08-28T03:19:23.297Z,18.32
2022-08-28T03:20:23.263Z,18.27
2022-08-28T03:21:23.252Z,18.39
2022-08-28T03:22:23.287Z,18.23
2022-08-28T03:23:23.268Z,18.36
2022-08-28T03:24:23.266Z,18.32
2022-08-28T03:25:23.209Z,18.35
2022-08-28T03:26:23.234Z,18.35
2022-08-28T03:27:23.192Z,18.26
2022-08-28T03:28:23.207Z,18.36
2022-08-28T03:29:23.203Z,18.29
2022-08-28T03:30:23.160Z,18.35
2022-08-28T03:31:23.254Z,18.23
2022-08-28T03:32:23.228Z,18.33
2022-08-28T03:33:23.125Z,18.32
2022-08-28T03:34:23.132Z,18.35
2022-08-28T03:35:23.139Z,18.32
2022-08-28T03:36:23.088Z,18.29
2022-08-28T03:37:23.108Z,18.29
2022-08-28T03:38:25.230Z,18.26
2022-08-28T03:39:23.117Z,18.29
2022-08-28T03:40:23.122Z,18.26
2022-08-28T03:41:23.037Z,18.27
2022-08-28T03:42:23.050Z,18.25
2022-08-28T03:43:23.018Z,18.18
2022-08-28T03:44:23.001Z,18.25
2022-08-28T03:45:23.003Z,18.17
2022-08-28T03:46:23.081Z,18.17
2022-08-28T03:47:22.964Z,18.15
2022-08-28T03:48:22.977Z,18.08
2022-08-28T03:49:22.941Z,18.11
2022-08-28T03:50:22.937Z,18.21
2022-08-28T03:51:29.250Z,18.14
2022-08-28T03:52:23.911Z,18.14
2022-08-28T03:53:22.939Z,18.15
2022-08-28T03:54:22.890Z,18.18
2022-08-28T03:55:22.882Z,18.18
2022-08-28T03:56:22.937Z,18.14
2022-08-28T03:57:22.880Z,18.12
2022-08-28T03:58:22.848Z,18.15
2022-08-28T03:59:22.837Z,18.14
2022-08-28T04:00:22.844Z,18.15
2022-08-28T04:01:22.880Z,18.23
2022-08-28T04:02:22.842Z,18.21
2022-08-28T04:03:22.864Z,18.14
2022-08-28T04:04:22.789Z,18.17
2022-08-28T04:05:22.794Z,18.11
2022-08-28T04:06:22.843Z,18.18
2022-08-28T04:07:22.748Z,18.11
2022-08-28T04:08:22.764Z,18.14
2022-08-28T04:09:22.789Z,18.14
2022-08-28T04:10:22.714Z,18.15
2022-08-28T04:11:22.697Z,18.14
2022-08-28T04:12:22.693Z,18.12
2022-08-28T04:13:22.689Z,18.11
2022-08-28T04:14:22.703Z,18.26
2022-08-28T04:15:22.656Z,18.21
2022-08-28T04:16:22.664Z,18.14
2022-08-28T04:17:22.704Z,18.08
2022-08-28T04:18:22.642Z,18.12
2022-08-28T04:19:22.637Z,18.17
2022-08-28T04:20:22.634Z,18.17
2022-08-28T04:21:22.589Z,18.12
2022-08-28T04:22:22.579Z,18.14
2022-08-28T04:23:22.589Z,18.11
2022-08-28T04:24:22.591Z,18.11
2022-08-28T04:25:22.575Z,18.10
2022-08-28T04:26:22.532Z,18.21
2022-08-28T04:27:22.523Z,18.12
2022-08-28T04:28:22.510Z,18.11
2022-08-28T04:29:22.524Z,18.15
2022-08-28T04:30:22.530Z,18.11
2022-08-28T04:31:32.144Z,18.12
2022-08-28T04:32:23.466Z,18.14
2022-08-28T04:33:22.457Z,18.15
2022-08-28T04:34:22.442Z,18.15
2022-08-28T04:35:22.470Z,18.14
2022-08-28T04:36:22.442Z,18.23
2022-08-28T04:37:22.807Z,18.07
2022-08-28T04:38:23.402Z,18.12
2022-08-28T04:39:22.448Z,18.14
2022-08-28T04:40:22.451Z,18.25
2022-08-28T04:41:22.401Z,18.26
2022-08-28T04:42:22.380Z,18.27
2022-08-28T04:43:22.346Z,18.27
2022-08-28T04:44:22.338Z,18.26
2022-08-28T04:45:22.356Z,18.26
2022-08-28T04:46:22.450Z,18.26
2022-08-28T04:47:22.307Z,18.32
2022-08-28T04:48:22.317Z,18.21
2022-08-28T04:49:22.327Z,18.29
2022-08-28T04:50:22.266Z,18.29
2022-08-28T04:51:22.256Z,18.26
2022-08-28T04:52:22.306Z,18.26
2022-08-28T04:53:22.258Z,18.27
2022-08-28T04:54:22.220Z,18.18
2022-08-28T04:55:27.858Z,18.26
2022-08-28T04:56:23.202Z,18.29
2022-08-28T04:57:22.197Z,18.26
2022-08-28T04:58:23.704Z,18.36
2022-08-28T04:59:22.196Z,18.29
2022-08-28T05:00:22.153Z,18.36
2022-08-28T05:01:22.254Z,18.32
2022-08-28T05:02:22.187Z,18.33
2022-08-28T05:03:22.154Z,18.36
2022-08-28T05:04:22.120Z,18.29
2022-08-28T05:05:22.152Z,18.32
2022-08-28T05:06:22.086Z,18.30
2022-08-28T05:07:22.078Z,18.36
2022-08-28T05:08:22.106Z,18.35
2022-08-28T05:09:22.065Z,18.42
2022-08-28T05:10:22.059Z,18.36
2022-08-28T05:11:33.215Z,18.36
2022-08-28T05:12:23.019Z,18.36
2022-08-28T05:13:22.032Z,18.35
2022-08-28T05:14:22.110Z,18.30
2022-08-28T05:15:22.001Z,18.35
2022-08-28T05:16:22.038Z,18.35
2022-08-28T05:17:22.005Z,18.27
2022-08-28T05:18:21.961Z,18.27
2022-08-28T05:19:21.950Z,18.32
2022-08-28T05:20:21.934Z,18.37
2022-08-28T05:21:21.962Z,18.33
2022-08-28T05:22:21.916Z,18.35
2022-08-28T05:23:22.101Z,18.26
2022-08-28T05:24:21.888Z,18.29
2022-08-28T05:25:21.877Z,18.41
2022-08-28T05:26:21.873Z,18.25
2022-08-28T05:27:22.854Z,18.32
2022-08-28T05:28:21.883Z,18.33
2022-08-28T05:29:21.871Z,18.29
2022-08-28T05:30:21.819Z,18.32
2022-08-28T05:31:21.924Z,18.39
2022-08-28T05:32:21.803Z,18.27
2022-08-28T05:33:21.808Z,18.25
2022-08-28T05:34:21.776Z,18.21
2022-08-28T05:35:21.788Z,18.27
2022-08-28T05:36:21.758Z,18.29
2022-08-28T05:37:21.760Z,18.32
2022-08-28T05:38:21.780Z,18.35
2022-08-28T05:39:21.758Z,18.26
2022-08-28T05:40:21.748Z,18.21
2022-08-28T05:41:21.699Z,18.26
2022-08-28T05:42:21.693Z,18.32
2022-08-28T05:43:21.712Z,18.26
2022-08-28T05:44:21.687Z,18.33
2022-08-28T05:45:21.703Z,18.26
2022-08-28T05:46:21.723Z,18.30
2022-08-28T05:47:21.701Z,18.27
2022-08-28T05:48:21.650Z,18.42
2022-08-28T05:49:21.625Z,18.29
2022-08-28T05:50:21.625Z,18.33
2022-08-28T05:51:22.389Z,18.37
2022-08-28T05:52:21.574Z,18.36
2022-08-28T05:53:21.934Z,18.32
2022-08-28T05:54:21.557Z,18.33
2022-08-28T05:55:21.559Z,18.27
2022-08-28T05:56:21.543Z,18.37
2022-08-28T05:57:21.580Z,18.35
2022-08-28T05:58:21.510Z,18.36
2022-08-28T05:59:21.503Z,18.36
2022-08-28T06:00:21.488Z,18.36
2022-08-28T06:01:21.500Z,18.37
2022-08-28T06:02:21.546Z,18.32
2022-08-28T06:03:21.508Z,18.32
2022-08-28T06:04:21.491Z,18.29
2022-08-28T06:05:21.439Z,18.41
2022-08-28T06:06:21.439Z,18.42
2022-08-28T06:07:21.443Z,18.41
2022-08-28T06:08:21.437Z,18.39
2022-08-28T06:09:25.319Z,18.37
2022-08-28T06:10:22.387Z,18.39
2022-08-28T06:11:21.382Z,18.44
2022-08-28T06:12:21.362Z,18.37
2022-08-28T06:13:21.376Z,18.35
2022-08-28T06:14:21.377Z,18.32
2022-08-28T06:15:21.320Z,18.29
2022-08-28T06:16:21.327Z,18.33
2022-08-28T06:17:23.630Z,18.27
2022-08-28T06:18:21.302Z,18.30
2022-08-28T06:19:21.307Z,18.29
2022-08-28T06:20:21.267Z,18.33
2022-08-28T06:21:21.263Z,18.26
2022-08-28T06:22:21.265Z,18.36
2022-08-28T06:23:23.826Z,18.35
2022-08-28T06:24:21.237Z,18.37
2022-08-28T06:25:21.254Z,18.42
2022-08-28T06:26:21.197Z,18.37
2022-08-28T06:27:21.266Z,18.39
2022-08-28T06:28:21.180Z,18.39
2022-08-28T06:29:21.297Z,18.42
2022-08-28T06:30:21.181Z,18.37
2022-08-28T06:31:24.557Z,18.32
2022-08-28T06:32:21.213Z,18.45
2022-08-28T06:33:21.133Z,18.47
2022-08-28T06:34:21.147Z,18.44
2022-08-28T06:35:21.116Z,18.48
2022-08-28T06:36:21.113Z,18.51
2022-08-28T06:37:21.076Z,18.54
2022-08-28T06:38:21.066Z,18.39
2022-08-28T06:39:21.101Z,18.37
2022-08-28T06:40:21.124Z,18.41
2022-08-28T06:41:21.053Z,18.41
2022-08-28T06:42:21.083Z,18.42
2022-08-28T06:43:21.011Z,18.41
2022-08-28T06:44:20.999Z,18.39
2022-08-28T06:45:21.045Z,18.37
2022-08-28T06:46:21.035Z,18.36
2022-08-28T06:47:21.005Z,18.37
2022-08-28T06:48:20.955Z,18.35
2022-08-28T06:49:20.947Z,18.42
2022-08-28T06:50:21.015Z,18.39
2022-08-28T06:51:23.112Z,18.26
2022-08-28T06:52:20.959Z,18.27
2022-08-28T06:53:20.920Z,18.39
2022-08-28T06:54:23.094Z,18.45
2022-08-28T06:55:20.896Z,18.48
2022-08-28T06:56:26.898Z,18.44
2022-08-28T06:57:21.914Z,18.35
2022-08-28T06:58:20.874Z,18.47
2022-08-28T06:59:20.873Z,18.52
2022-08-28T07:00:20.821Z,18.47
2022-08-28T07:01:20.820Z,18.48
2022-08-28T07:02:20.997Z,18.41
2022-08-28T07:03:21.813Z,18.44
2022-08-28T07:04:20.802Z,18.39
2022-08-28T07:05:20.839Z,18.45
2022-08-28T07:06:20.755Z,18.52
2022-08-28T07:07:31.455Z,18.58
2022-08-28T07:08:21.757Z,18.58
2022-08-28T07:09:20.735Z,18.58
2022-08-28T07:10:20.735Z,18.60
2022-08-28T07:11:20.756Z,18.65
2022-08-28T07:12:20.707Z,18.63
2022-08-28T07:13:20.731Z,18.55
2022-08-28T07:14:20.706Z,18.58
2022-08-28T07:15:20.675Z,18.60
2022-08-28T07:16:20.723Z,18.55
2022-08-28T07:17:20.633Z,18.58
2022-08-28T07:18:20.622Z,18.57
2022-08-28T07:19:20.660Z,18.57
2022-08-28T07:20:20.653Z,18.60
2022-08-28T07:21:20.612Z,18.66
2022-08-28T07:22:20.632Z,18.51
2022-08-28T07:23:20.588Z,18.55
2022-08-28T07:24:20.580Z,18.55
2022-08-28T07:25:20.580Z,18.60
2022-08-28T07:26:20.551Z,18.65
2022-08-28T07:27:20.545Z,18.66
2022-08-28T07:28:20.517Z,18.60
2022-08-28T07:29:20.523Z,18.62
2022-08-28T07:30:20.488Z,18.63
2022-08-28T07:31:20.560Z,18.73
2022-08-28T07:32:20.494Z,18.72
2022-08-28T07:33:20.459Z,18.72
2022-08-28T07:34:20.442Z,18.80
2022-08-28T07:35:20.433Z,18.81
2022-08-28T07:36:28.874Z,18.84
2022-08-28T07:37:21.452Z,18.75
2022-08-28T07:38:20.426Z,18.84
2022-08-28T07:39:20.388Z,18.85
2022-08-28T07:40:20.411Z,18.90
2022-08-28T07:41:20.393Z,18.98
2022-08-28T07:42:20.354Z,18.99
2022-08-28T07:43:20.367Z,18.99
2022-08-28T07:44:20.367Z,18.98
2022-08-28T07:45:20.321Z,19.06
2022-08-28T07:46:20.377Z,19.02
2022-08-28T07:47:20.343Z,19.10
2022-08-28T07:48:21.274Z,19.21
2022-08-28T07:49:20.299Z,19.28
2022-08-28T07:50:20.283Z,19.22
2022-08-28T07:51:20.266Z,19.23
2022-08-28T07:52:20.244Z,19.22
2022-08-28T07:53:20.260Z,19.14
2022-08-28T07:54:20.229Z,19.02
2022-08-28T07:55:20.227Z,19.07
2022-08-28T07:56:20.197Z,19.10
2022-08-28T07:57:20.190Z,19.14
2022-08-28T07:58:20.191Z,19.16
2022-08-28T07:59:20.256Z,19.14
2022-08-28T08:00:20.173Z,19.06
2022-08-28T08:01:20.209Z,19.06
2022-08-28T08:02:20.181Z,19.00
2022-08-28T08:03:20.177Z,19.06
2022-08-28T08:04:20.120Z,18.98
2022-08-28T08:05:20.107Z,19.00
2022-08-28T08:06:20.118Z,18.98
2022-08-28T08:07:20.120Z,18.99
2022-08-28T08:08:20.475Z,19.00
2022-08-28T08:09:20.055Z,19.06
2022-08-28T08:10:20.059Z,19.06
2022-08-28T08:11:20.080Z,19.16
2022-08-28T08:12:20.055Z,19.14
2022-08-28T08:13:20.062Z,19.18
2022-08-28T08:14:19.998Z,19.25
2022-08-28T08:15:19.993Z,19.22
2022-08-28T08:16:20.055Z,19.25
2022-08-28T08:17:19.992Z,19.29
2022-08-28T08:18:20.769Z,19.22
2022-08-28T08:19:19.945Z,19.26
2022-08-28T08:20:19.954Z,19.19
2022-08-28T08:21:19.923Z,19.31
2022-08-28T08:22:19.951Z,19.21
2022-08-28T08:23:19.928Z,19.25
2022-08-28T08:24:20.163Z,19.19
2022-08-28T08:25:19.879Z,19.29
2022-08-28T08:26:19.865Z,19.26
2022-08-28T08:27:19.881Z,19.32
2022-08-28T08:28:19.860Z,19.36
2022-08-28T08:29:19.852Z,19.28
2022-08-28T08:30:19.823Z,19.31
2022-08-28T08:31:19.847Z,19.26
2022-08-28T08:32:19.900Z,19.32
2022-08-28T08:33:19.812Z,19.32
2022-08-28T08:34:19.802Z,19.39
2022-08-28T08:35:19.803Z,19.47
2022-08-28T08:36:19.759Z,19.48
2022-08-28T08:37:19.751Z,19.56
2022-08-28T08:38:19.734Z,19.55
2022-08-28T08:39:19.733Z,19.61
2022-08-28T08:40:19.813Z,19.74
2022-08-28T08:41:19.747Z,19.71
2022-08-28T08:42:19.691Z,19.80
2022-08-28T08:43:19.686Z,19.87
2022-08-28T08:44:19.668Z,19.95
2022-08-28T08:45:19.702Z,19.99
2022-08-28T08:46:19.758Z,19.99
2022-08-28T08:47:19.633Z,19.99
2022-08-28T08:48:19.624Z,19.99
2022-08-28T08:49:19.639Z,19.96
2022-08-28T08:50:19.600Z,19.95
2022-08-28T08:51:19.611Z,19.99
2022-08-28T08:52:19.610Z,20.02
2022-08-28T08:53:19.565Z,19.92
2022-08-28T08:54:19.555Z,19.95
2022-08-28T08:55:19.585Z,19.96
2022-08-28T08:56:19.535Z,19.81
2022-08-28T08:57:19.545Z,19.77
2022-08-28T08:58:19.512Z,19.76
2022-08-28T08:59:19.498Z,19.76
2022-08-28T09:00:19.493Z,19.73
2022-08-28T09:01:19.514Z,19.66
2022-08-28T09:02:19.485Z,19.66
2022-08-28T09:03:19.517Z,19.73
2022-08-28T09:04:21.509Z,19.81
2022-08-28T09:05:19.432Z,19.76
2022-08-28T09:06:19.421Z,19.78
2022-08-28T09:07:19.547Z,19.81
2022-08-28T09:08:19.423Z,19.83
2022-08-28T09:09:19.416Z,19.74
2022-08-28T09:10:19.377Z,19.71
2022-08-28T09:11:19.364Z,19.63
2022-08-28T09:12:19.355Z,19.71
2022-08-28T09:13:19.389Z,19.68
2022-08-28T09:14:20.495Z,19.61
2022-08-28T09:15:19.353Z,19.55
2022-08-28T09:16:19.370Z,19.69
2022-08-28T09:17:27.420Z,19.61
2022-08-28T09:18:19.309Z,19.61
2022-08-28T09:19:19.297Z,19.61
2022-08-28T09:20:19.298Z,19.56
2022-08-28T09:21:19.253Z,19.68
2022-08-28T09:22:19.244Z,19.74
2022-08-28T09:23:19.239Z,19.78
2022-08-28T09:24:19.225Z,19.78
2022-08-28T09:25:19.229Z,19.77
2022-08-28T09:26:19.237Z,19.77
2022-08-28T09:27:19.188Z,19.74
2022-08-28T09:28:19.176Z,19.78
2022-08-28T09:29:19.218Z,19.91
2022-08-28T09:30:19.161Z,19.87
2022-08-28T09:31:19.639Z,19.81
2022-08-28T09:32:19.210Z,19.86
2022-08-28T09:33:19.121Z,19.88
2022-08-28T09:34:19.109Z,19.86
2022-08-28T09:35:19.123Z,19.84
2022-08-28T09:36:19.099Z,19.81
2022-08-28T09:37:19.154Z,19.91
2022-08-28T09:38:19.106Z,19.88
2022-08-28T09:39:19.054Z,19.94
2022-08-28T09:40:19.237Z,19.91
2022-08-28T09:41:19.035Z,19.95
2022-08-28T09:42:19.050Z,19.96
2022-08-28T09:43:19.036Z,20.05
2022-08-28T09:44:18.998Z,19.95
2022-08-28T09:45:18.986Z,19.99
2022-08-28T09:46:19.049Z,19.98
2022-08-28T09:47:19.000Z,20.06
2022-08-28T09:48:18.981Z,20.14
2022-08-28T09:49:18.940Z,20.10
2022-08-28T09:50:18.945Z,20.13
2022-08-28T09:51:18.920Z,20.11
2022-08-28T09:52:21.902Z,20.21
2022-08-28T09:53:19.959Z,20.17
2022-08-28T09:54:18.922Z,20.23
2022-08-28T09:55:18.929Z,20.26
2022-08-28T09:56:18.864Z,20.38
2022-08-28T09:57:18.865Z,20.32
2022-08-28T09:58:18.846Z,20.38
2022-08-28T09:59:18.852Z,20.41
2022-08-28T10:00:18.845Z,20.50
2022-08-28T10:01:18.916Z,20.54
2022-08-28T10:02:18.798Z,20.52
2022-08-28T10:03:18.826Z,20.62
2022-08-28T10:04:18.891Z,20.64
2022-08-28T10:05:18.791Z,20.61
2022-08-28T10:06:19.751Z,20.67
2022-08-28T10:07:18.742Z,20.58
2022-08-28T10:08:18.733Z,20.61
2022-08-28T10:09:18.721Z,20.61
2022-08-28T10:10:18.797Z,20.67
2022-08-28T10:11:18.723Z,20.72
2022-08-28T10:12:18.731Z,20.66
2022-08-28T10:13:18.674Z,20.59
2022-08-28T10:14:18.671Z,20.69
2022-08-28T10:15:18.751Z,20.57
2022-08-28T10:16:18.697Z,20.66
2022-08-28T10:17:20.810Z,20.67
2022-08-28T10:18:18.619Z,20.54
2022-08-28T10:19:18.632Z,20.39
2022-08-28T10:20:18.625Z,20.41
2022-08-28T10:21:18.601Z,20.41
2022-08-28T10:22:18.595Z,20.41
2022-08-28T10:23:19.535Z,20.43
2022-08-28T10:24:24.289Z,20.48
2022-08-28T10:25:19.582Z,20.42
2022-08-28T10:26:18.536Z,20.47
2022-08-28T10:27:18.533Z,20.51
2022-08-28T10:28:18.544Z,20.48
2022-08-28T10:29:18.495Z,20.43
2022-08-28T10:30:18.491Z,20.48
2022-08-28T10:31:18.529Z,20.50
2022-08-28T10:32:18.492Z,20.41
2022-08-28T10:33:18.484Z,20.42
2022-08-28T10:34:18.470Z,20.52
2022-08-28T10:35:18.429Z,20.52
2022-08-28T10:36:27.399Z,20.61
2022-08-28T10:37:19.423Z,20.58
2022-08-28T10:38:18.438Z,20.64
2022-08-28T10:39:18.414Z,20.61
2022-08-28T10:40:18.443Z,20.66
2022-08-28T10:41:18.363Z,20.66
2022-08-28T10:42:18.352Z,20.66
2022-08-28T10:43:18.348Z,20.64
2022-08-28T10:44:18.386Z,20.59
2022-08-28T10:45:18.360Z,20.66
2022-08-28T10:46:18.409Z,20.59
2022-08-28T10:47:18.294Z,20.50
2022-08-28T10:48:18.292Z,20.58
2022-08-28T10:49:18.276Z,20.58
2022-08-28T10:50:18.284Z,20.54
2022-08-28T10:51:18.281Z,20.59
2022-08-28T10:52:18.316Z,20.57
2022-08-28T10:53:18.234Z,20.57
2022-08-28T10:54:18.234Z,20.67
2022-08-28T10:55:18.216Z,20.57
2022-08-28T10:56:18.220Z,20.62
2022-08-28T10:57:18.237Z,20.62
2022-08-28T10:58:24.371Z,20.67
2022-08-28T10:59:19.188Z,20.66
2022-08-28T11:00:18.155Z,20.61
2022-08-28T11:01:18.201Z,20.69
2022-08-28T11:02:18.267Z,20.67
2022-08-28T11:03:33.835Z,20.73
2022-08-28T11:04:25.122Z,20.62
2022-08-28T11:05:19.108Z,20.66
2022-08-28T11:06:18.095Z,20.62
2022-08-28T11:07:18.121Z,20.70
2022-08-28T11:08:18.063Z,20.70
2022-08-28T11:09:18.065Z,20.70
2022-08-28T11:10:18.040Z,20.61
2022-08-28T11:11:18.028Z,20.74
2022-08-28T11:12:18.071Z,20.74
2022-08-28T11:13:18.054Z,20.73
2022-08-28T11:14:17.995Z,20.79
2022-08-28T11:15:17.982Z,20.84
2022-08-28T11:16:18.083Z,20.92
2022-08-28T11:17:17.969Z,20.87
2022-08-28T11:18:17.967Z,21.03
2022-08-28T11:19:17.969Z,20.97
2022-08-28T11:20:17.980Z,20.95
2022-08-28T11:21:17.918Z,21.14
2022-08-28T11:22:17.915Z,20.97
2022-08-28T11:23:17.980Z,21.01
2022-08-28T11:24:17.912Z,21.13
2022-08-28T11:25:18.002Z,21.10
2022-08-28T11:26:18.869Z,21.10
2022-08-28T11:27:17.852Z,21.12
2022-08-28T11:28:17.843Z,21.06
2022-08-28T11:29:17.841Z,21.12
2022-08-28T11:30:17.865Z,21.14
2022-08-28T11:31:28.774Z,21.12
2022-08-28T11:32:18.794Z,21.13
2022-08-28T11:33:17.788Z,21.17
2022-08-28T11:34:17.773Z,21.14
2022-08-28T11:35:17.785Z,21.13
2022-08-28T11:36:17.810Z,21.22
2022-08-28T11:37:17.737Z,21.24
2022-08-28T11:38:20.101Z,21.17
2022-08-28T11:39:17.734Z,21.22
2022-08-28T11:40:17.790Z,21.25
2022-08-28T11:41:17.728Z,21.22
2022-08-28T11:42:17.733Z,21.28
2022-08-28T11:43:17.670Z,21.19
2022-08-28T11:44:17.689Z,21.29
2022-08-28T11:45:17.666Z,21.29
2022-08-28T11:46:21.004Z,21.25
2022-08-28T11:47:18.628Z,21.24
2022-08-28T11:48:17.687Z,21.35
2022-08-28T11:49:17.620Z,21.37
2022-08-28T11:50:17.594Z,21.34
2022-08-28T11:51:17.593Z,21.28
2022-08-28T11:52:17.590Z,21.31
2022-08-28T11:53:17.602Z,21.32
2022-08-28T11:54:17.586Z,21.32
2022-08-28T11:55:17.539Z,21.38
2022-08-28T11:56:21.767Z,21.42
2022-08-28T11:57:18.541Z,21.50
2022-08-28T11:58:17.528Z,21.50
2022-08-28T11:59:17.531Z,21.44
2022-08-28T12:00:17.530Z,21.40
2022-08-28T12:01:17.471Z,21.50
2022-08-28T12:02:17.512Z,21.59
2022-08-28T12:03:17.463Z,21.56
2022-08-28T12:04:17.489Z,21.71
2022-08-28T12:05:17.426Z,21.74
2022-08-28T12:06:17.488Z,21.82
2022-08-28T12:07:17.409Z,21.84
2022-08-28T12:08:17.404Z,21.96
2022-08-28T12:09:17.407Z,22.00
2022-08-28T12:10:17.402Z,22.03
2022-08-28T12:11:17.375Z,22.12
2022-08-28T12:12:17.383Z,22.17
2022-08-28T12:13:17.343Z,22.14
2022-08-28T12:14:17.335Z,22.31
2022-08-28T12:15:17.354Z,22.30
2022-08-28T12:16:17.401Z,22.33
2022-08-28T12:17:17.308Z,22.40
2022-08-28T12:18:17.290Z,22.47
2022-08-28T12:19:17.282Z,22.43
2022-08-28T12:20:17.297Z,22.52
2022-08-28T12:21:17.278Z,22.51
2022-08-28T12:22:17.239Z,22.62
2022-08-28T12:23:17.242Z,22.67
2022-08-28T12:24:17.219Z,22.75
2022-08-28T12:25:17.208Z,22.77
2022-08-28T12:26:17.216Z,22.82
2022-08-28T12:27:17.241Z,22.92
2022-08-28T12:28:17.173Z,22.83
2022-08-28T12:29:17.175Z,22.90
2022-08-28T12:30:17.181Z,22.86
2022-08-28T12:31:17.172Z,22.97
2022-08-28T12:32:17.153Z,22.94
2022-08-28T12:33:17.116Z,22.97
2022-08-28T12:34:17.183Z,22.91
2022-08-28T12:35:17.099Z,23.00
2022-08-28T12:36:17.106Z,22.97
2022-08-28T12:37:17.084Z,22.97
2022-08-28T12:38:17.138Z,22.90
2022-08-28T12:39:17.048Z,22.92
2022-08-28T12:40:17.098Z,22.91
2022-08-28T12:41:17.026Z,22.98
2022-08-28T12:42:17.061Z,23.07
2022-08-28T12:43:17.029Z,23.10
2022-08-28T12:44:17.037Z,23.04
2022-08-28T12:45:16.984Z,23.17
2022-08-28T12:46:19.721Z,22.98
2022-08-28T12:47:16.971Z,23.04
2022-08-28T12:48:16.973Z,23.09
2022-08-28T12:49:16.991Z,23.00
2022-08-28T12:50:16.927Z,23.02
2022-08-28T12:51:16.936Z,22.95
2022-08-28T12:52:17.198Z,22.94